Time;durP1;ratioP1;P1;durP2;ratioP2;P2;SDS_P1;SDS_P2;PMS_P1;PMS_P2;Temp;Humidity;BMP_temperature;BMP_pressure;BME280_temperature;BME280_humidity;BME280_pressure;Samples;Min_cycle;Max_cycle;Signal;HPM_P1;HPM_P2
2022/05/13 00:02:13;;;;;;;7.60;5.25;;;;;;;;;;5011900;28;20054;-68
2022/05/13 00:04:40;;;;;;;11.10;5.40;;;;;;;;;;4996600;28;20045;-68
2022/05/13 00:07:07;;;;;;;8.18;5.72;;;;;;;;;;5013430;28;20042;-68
2022/05/13 00:12:20;;;;;;;8.02;6.30;;;;;;;;;;5012569;28;20112;-68
2022/05/13 00:14:47;;;;;;;7.53;6.53;;;;;;;;;;5013175;28;20049;-68
2022/05/13 00:17:14;;;;;;;7.05;5.97;;;;;;;;;;5012845;28;20049;-68
2022/05/13 00:19:41;;;;;;;7.93;6.30;;;;;;;;;;5013089;28;20053;-68
2022/05/13 00:22:08;;;;;;;7.60;6.68;;;;;;;;;;5009114;28;20409;-68
2022/05/13 00:24:34;;;;;;;8.63;6.68;;;;;;;;;;4993502;28;20058;-68
2022/05/13 00:27:01;;;;;;;9.38;6.57;;;;;;;;;;4993376;28;20046;-68
2022/05/13 00:29:28;;;;;;;10.00;6.45;;;;;;;;;;5005445;28;20104;-68
2022/05/13 00:31:55;;;;;;;9.35;7.15;;;;;;;;;;5012929;28;20368;-68
2022/05/13 00:34:21;;;;;;;8.43;6.45;;;;;;;;;;5012864;28;20131;-68
2022/05/13 00:36:48;;;;;;;8.15;7.10;;;;;;;;;;5003643;28;20054;-68
2022/05/13 00:39:16;;;;;;;10.57;6.88;;;;;;;;;;4993627;28;20124;-68
2022/05/13 00:41:42;;;;;;;7.65;6.85;;;;;;;;;;5009693;28;20053;-68
2022/05/13 00:44:09;;;;;;;9.00;6.82;;;;;;;;;;5004155;28;20054;-68
2022/05/13 00:46:37;;;;;;;7.18;6.53;;;;;;;;;;4993083;28;20417;-68
2022/05/13 00:49:06;;;;;;;8.18;7.13;;;;;;;;;;4992963;28;20050;-68
2022/05/13 00:51:45;;;;;;;9.73;6.72;;;;;;;;;;5007108;28;20057;-68
2022/05/13 00:54:13;;;;;;;9.15;7.00;;;;;;;;;;5006533;28;20054;-68
2022/05/13 00:56:47;;;;;;;8.50;7.60;;;;;;;;;;5007818;28;20058;-68
2022/05/13 00:59:16;;;;;;;8.55;6.75;;;;;;;;;;5003695;28;20516;-68
2022/05/13 01:01:43;;;;;;;8.52;5.97;;;;;;;;;;5011591;28;20049;-68
2022/05/13 01:04:11;;;;;;;9.43;6.05;;;;;;;;;;5007209;28;20088;-68
2022/05/13 01:06:38;;;;;;;9.98;6.15;;;;;;;;;;4993739;28;20046;-69
2022/05/13 01:09:04;;;;;;;6.53;5.88;;;;;;;;;;5020349;28;20053;-68
2022/05/13 01:11:34;;;;;;;8.55;5.40;;;;;;;;;;5005774;28;20560;-68
2022/05/13 01:14:29;;;;;;;8.13;5.90;;;;;;;;;;4994680;28;20049;-68
2022/05/13 01:20:11;;;;;;;6.88;6.18;;;;;;;;;;4998309;28;20057;-68
2022/05/13 01:22:44;;;;;;;10.32;6.55;;;;;;;;;;4995102;28;20412;-68
2022/05/13 01:25:17;;;;;;;7.85;7.05;;;;;;;;;;4993592;28;20046;-68
2022/05/13 01:27:45;;;;;;;9.02;5.93;;;;;;;;;;4992447;28;20104;-68
2022/05/13 01:30:15;;;;;;;7.75;5.00;;;;;;;;;;5008917;28;20424;-68
2022/05/13 01:32:42;;;;;;;8.70;6.22;;;;;;;;;;5011816;28;20054;-68
2022/05/13 01:35:09;;;;;;;6.15;5.38;;;;;;;;;;5008675;28;20042;-68
2022/05/13 01:37:35;;;;;;;7.10;5.55;;;;;;;;;;4993216;28;20054;-68
2022/05/13 01:40:04;;;;;;;8.15;5.97;;;;;;;;;;5012193;28;20065;-68
2022/05/13 01:42:31;;;;;;;6.80;5.55;;;;;;;;;;5011862;28;20046;-69
2022/05/13 01:44:58;;;;;;;11.00;6.25;;;;;;;;;;5007562;28;20489;-68
2022/05/13 01:47:38;;;;;;;8.63;6.22;;;;;;;;;;4951176;29;20052;-69
2022/05/13 01:50:06;;;;;;;7.43;6.15;;;;;;;;;;4951195;29;20051;-68
2022/05/13 01:52:33;;;;;;;11.07;5.95;;;;;;;;;;4950938;29;20047;-68
2022/05/13 01:54:59;;;;;;;10.52;6.47;;;;;;;;;;4952956;28;20426;-68
2022/05/13 01:57:26;;;;;;;11.32;6.90;;;;;;;;;;4974618;28;20106;-67
2022/05/13 01:59:54;;;;;;;6.97;6.28;;;;;;;;;;4980672;28;20031;-68
2022/05/13 02:02:21;;;;;;;7.53;6.70;;;;;;;;;;4952609;28;20106;-68
2022/05/13 02:04:47;;;;;;;7.60;6.35;;;;;;;;;;4954774;28;20492;-68
2022/05/13 02:07:14;;;;;;;7.07;5.85;;;;;;;;;;4955206;28;20051;-68
2022/05/13 02:09:41;;;;;;;5.85;5.22;;;;;;;;;;4957244;28;20518;-68
2022/05/13 02:12:08;;;;;;;8.98;5.85;;;;;;;;;;4973998;28;20051;-68
2022/05/13 02:14:35;;;;;;;6.68;5.75;;;;;;;;;;4973929;28;20058;-68
2022/05/13 02:17:02;;;;;;;10.63;5.72;;;;;;;;;;4958361;28;20110;-67
2022/05/13 02:19:28;;;;;;;12.75;6.47;;;;;;;;;;4972746;28;20086;-68
2022/05/13 02:21:55;;;;;;;8.13;6.00;;;;;;;;;;4980894;28;20054;-67
2022/05/13 02:24:21;;;;;;;9.50;6.25;;;;;;;;;;5015148;28;20061;-67
2022/05/13 02:26:48;;;;;;;9.63;6.60;;;;;;;;;;5015189;28;20111;-68
2022/05/13 02:29:15;;;;;;;10.55;7.00;;;;;;;;;;5015131;28;20140;-68
2022/05/13 02:31:41;;;;;;;11.43;6.28;;;;;;;;;;5015205;28;20076;-68
2022/05/13 02:34:08;;;;;;;9.80;5.97;;;;;;;;;;5015101;28;20054;-68
2022/05/13 02:36:34;;;;;;;12.98;6.82;;;;;;;;;;5010099;28;20050;-68
2022/05/13 02:39:01;;;;;;;12.48;6.97;;;;;;;;;;4995426;28;20054;-68
2022/05/13 02:41:28;;;;;;;12.75;6.65;;;;;;;;;;4995201;28;20497;-68
2022/05/13 02:43:55;;;;;;;10.15;7.45;;;;;;;;;;4994938;28;20054;-68
2022/05/13 02:46:25;;;;;;;11.88;6.55;;;;;;;;;;4995234;28;20505;-67
2022/05/13 02:48:53;;;;;;;8.55;6.25;;;;;;;;;;5010385;28;20050;-68
2022/05/13 02:51:21;;;;;;;9.88;7.45;;;;;;;;;;4995125;28;20055;-68
2022/05/13 02:53:48;;;;;;;10.82;7.22;;;;;;;;;;4995004;28;20132;-68
2022/05/13 02:56:14;;;;;;;10.40;8.05;;;;;;;;;;4994977;28;20046;-68
2022/05/13 02:58:44;;;;;;;10.40;8.13;;;;;;;;;;5004767;28;20070;-68
2022/05/13 03:01:11;;;;;;;10.88;8.23;;;;;;;;;;5002811;28;20049;-68
2022/05/13 03:03:40;;;;;;;13.23;7.65;;;;;;;;;;5006437;28;20060;-68
2022/05/13 03:06:06;;;;;;;12.57;7.90;;;;;;;;;;5009958;28;20497;-68
2022/05/13 03:08:33;;;;;;;12.45;8.20;;;;;;;;;;5004994;28;20046;-68
2022/05/13 03:11:02;;;;;;;8.75;7.28;;;;;;;;;;4994535;28;20104;-68
2022/05/13 03:13:28;;;;;;;9.77;7.85;;;;;;;;;;4994462;28;20046;-68
2022/05/13 03:16:00;;;;;;;11.65;7.50;;;;;;;;;;4999560;28;20088;-68
2022/05/13 03:18:27;;;;;;;12.45;7.82;;;;;;;;;;5012951;28;20515;-68
2022/05/13 03:20:53;;;;;;;10.15;7.55;;;;;;;;;;5014140;28;20498;-68
2022/05/13 03:23:20;;;;;;;12.38;7.90;;;;;;;;;;5014071;28;20057;-68
2022/05/13 03:25:47;;;;;;;11.10;7.40;;;;;;;;;;5013568;28;20049;-68
2022/05/13 03:28:13;;;;;;;11.00;7.63;;;;;;;;;;5006561;28;20056;-68
2022/05/13 03:30:40;;;;;;;9.73;6.93;;;;;;;;;;5013378;28;20100;-68
2022/05/13 03:33:07;;;;;;;15.77;7.20;;;;;;;;;;5013715;28;20077;-68
2022/05/13 03:35:33;;;;;;;15.95;7.38;;;;;;;;;;5013849;28;20084;-68
2022/05/13 03:38:00;;;;;;;12.75;7.00;;;;;;;;;;5013744;28;20497;-68
2022/05/13 03:40:27;;;;;;;12.90;7.63;;;;;;;;;;5013952;28;20108;-68
2022/05/13 03:42:54;;;;;;;11.82;6.72;;;;;;;;;;5013545;28;20119;-68
2022/05/13 03:45:21;;;;;;;14.13;7.15;;;;;;;;;;5014166;28;20115;-67
2022/05/13 03:47:49;;;;;;;8.63;6.90;;;;;;;;;;5013769;28;20104;-67
2022/05/13 03:50:16;;;;;;;10.40;7.18;;;;;;;;;;5013651;28;20133;-67
2022/05/13 03:52:43;;;;;;;14.38;7.63;;;;;;;;;;5004544;28;20496;-67
2022/05/13 03:55:10;;;;;;;9.07;7.20;;;;;;;;;;4994234;28;20055;-67
2022/05/13 03:57:36;;;;;;;11.13;7.90;;;;;;;;;;4994378;28;20464;-67
2022/05/13 04:00:04;;;;;;;13.57;8.23;;;;;;;;;;5010092;28;20046;-67
2022/05/13 04:02:31;;;;;;;12.02;7.65;;;;;;;;;;5006697;28;20057;-67
2022/05/13 04:10:28;;;;;;;11.82;7.63;;;;;;;;;;4993912;28;20047;-67
2022/05/13 04:18:25;;;;;;;9.98;8.10;;;;;;;;;;5013411;28;20413;-67
2022/05/13 04:20:52;;;;;;;15.88;8.90;;;;;;;;;;5012903;28;20054;-67
2022/05/13 04:23:19;;;;;;;12.65;8.88;;;;;;;;;;5012911;28;20525;-67
2022/05/13 04:25:46;;;;;;;11.30;8.13;;;;;;;;;;5012219;28;20050;-67
2022/05/13 04:28:13;;;;;;;11.80;8.45;;;;;;;;;;5011545;28;20100;-67
2022/05/13 04:30:39;;;;;;;10.68;7.85;;;;;;;;;;4993344;28;20097;-67
2022/05/13 04:33:06;;;;;;;15.95;7.93;;;;;;;;;;5003642;28;20569;-67
2022/05/13 04:35:33;;;;;;;12.93;8.57;;;;;;;;;;5012888;28;20053;-67
2022/05/13 04:38:00;;;;;;;15.15;8.55;;;;;;;;;;5006245;28;20052;-67
2022/05/13 04:40:26;;;;;;;14.48;8.57;;;;;;;;;;5007877;28;20073;-67
2022/05/13 04:42:53;;;;;;;15.63;8.35;;;;;;;;;;4992932;28;20058;-67
2022/05/13 04:45:26;;;;;;;13.70;7.88;;;;;;;;;;4993281;28;20402;-67
2022/05/13 04:48:16;;;;;;;15.45;8.05;;;;;;;;;;4993089;28;20046;-67
2022/05/13 04:50:58;;;;;;;12.85;7.65;;;;;;;;;;4992783;28;20384;-67
2022/05/13 04:53:26;;;;;;;12.10;7.93;;;;;;;;;;4992650;28;20058;-67
2022/05/13 04:55:54;;;;;;;13.90;7.50;;;;;;;;;;4992564;28;20638;-67
2022/05/13 04:58:22;;;;;;;12.45;8.10;;;;;;;;;;4992524;28;20053;-67
2022/05/13 05:00:49;;;;;;;10.90;8.32;;;;;;;;;;5007601;28;20050;-67
2022/05/13 05:03:17;;;;;;;11.35;8.50;;;;;;;;;;4992450;28;20054;-67
2022/05/13 05:05:44;;;;;;;12.18;8.55;;;;;;;;;;4992161;28;20053;-67
2022/05/13 05:08:12;;;;;;;12.85;8.18;;;;;;;;;;4992536;28;20524;-67
2022/05/13 05:10:39;;;;;;;10.98;8.43;;;;;;;;;;4992982;28;20050;-67
2022/05/13 05:13:09;;;;;;;9.98;7.68;;;;;;;;;;4992663;28;20057;-68
2022/05/13 05:15:39;;;;;;;11.95;7.95;;;;;;;;;;4992291;28;20547;-67
2022/05/13 05:18:06;;;;;;;13.98;8.27;;;;;;;;;;4992321;28;20096;-67
2022/05/13 05:20:32;;;;;;;12.10;8.18;;;;;;;;;;4992460;28;20124;-68
2022/05/13 05:22:59;;;;;;;9.07;7.30;;;;;;;;;;4992597;28;20054;-66
2022/05/13 05:25:28;;;;;;;13.07;8.32;;;;;;;;;;4992691;28;20054;-66
2022/05/13 05:27:56;;;;;;;9.60;7.47;;;;;;;;;;4993812;28;20054;-67
2022/05/13 05:30:23;;;;;;;11.85;7.82;;;;;;;;;;4993014;28;20057;-67
2022/05/13 05:32:50;;;;;;;8.82;7.55;;;;;;;;;;4992604;28;20054;-66
2022/05/13 05:35:19;;;;;;;12.02;7.72;;;;;;;;;;4992615;28;20449;-67
2022/05/13 05:37:46;;;;;;;13.43;7.85;;;;;;;;;;5009907;28;20077;-67
2022/05/13 05:40:12;;;;;;;10.93;7.10;;;;;;;;;;5016537;28;20441;-67
2022/05/13 05:42:41;;;;;;;12.30;7.15;;;;;;;;;;5016532;28;20077;-68
2022/05/13 05:45:10;;;;;;;7.85;6.80;;;;;;;;;;5016667;28;20054;-68
2022/05/13 05:47:37;;;;;;;8.95;6.60;;;;;;;;;;5001582;28;20054;-68
2022/05/13 05:50:05;;;;;;;11.00;7.18;;;;;;;;;;4996813;28;20113;-68
2022/05/13 05:52:32;;;;;;;7.82;6.43;;;;;;;;;;4996814;28;20054;-68
2022/05/13 05:58:02;;;;;;;14.15;6.82;;;;;;;;;;5012013;28;20054;-68
2022/05/13 06:00:30;;;;;;;8.65;6.18;;;;;;;;;;5017286;28;20049;-68
2022/05/13 06:02:56;;;;;;;8.27;6.32;;;;;;;;;;5017923;28;20058;-68
2022/05/13 06:05:24;;;;;;;10.23;5.93;;;;;;;;;;5020285;28;20471;-69
2022/05/13 06:07:51;;;;;;;10.68;6.38;;;;;;;;;;5003850;28;20054;-68
2022/05/13 06:10:18;;;;;;;11.60;6.32;;;;;;;;;;4995555;28;20058;-68
2022/05/13 06:12:45;;;;;;;8.45;6.93;;;;;;;;;;4996826;28;20120;-68
2022/05/13 06:15:12;;;;;;;8.52;5.82;;;;;;;;;;4996440;28;20058;-68
2022/05/13 06:17:53;;;;;;;12.32;7.28;;;;;;;;;;5009433;28;20053;-68
2022/05/13 06:20:25;;;;;;;10.73;6.43;;;;;;;;;;5016269;28;20104;-68
2022/05/13 06:22:52;;;;;;;7.60;6.07;;;;;;;;;;5016208;28;20088;-68
2022/05/13 06:25:22;;;;;;;9.35;6.30;;;;;;;;;;5016322;28;20496;-68
2022/05/13 06:27:50;;;;;;;10.85;6.47;;;;;;;;;;5001689;28;20422;-67
2022/05/13 06:30:29;;;;;;;7.38;6.20;;;;;;;;;;5011116;28;20545;-67
2022/05/13 06:32:56;;;;;;;10.15;6.68;;;;;;;;;;4996203;28;20053;-68
2022/05/13 06:35:24;;;;;;;11.20;6.28;;;;;;;;;;4996724;28;20062;-67
2022/05/13 06:37:53;;;;;;;9.48;5.93;;;;;;;;;;5011422;28;20077;-67
2022/05/13 06:40:24;;;;;;;8.82;5.03;;;;;;;;;;5016106;28;20432;-67
2022/05/13 06:42:51;;;;;;;9.68;6.40;;;;;;;;;;5013962;28;20136;-67
2022/05/13 06:45:19;;;;;;;12.55;6.57;;;;;;;;;;5015994;28;20049;-67
2022/05/13 06:47:46;;;;;;;6.75;5.05;;;;;;;;;;5000870;28;20402;-67
2022/05/13 06:50:16;;;;;;;7.78;5.30;;;;;;;;;;4992519;28;20077;-67
2022/05/13 06:52:43;;;;;;;6.72;5.00;;;;;;;;;;4994206;28;20054;-68
2022/05/13 06:55:11;;;;;;;6.97;4.45;;;;;;;;;;5011828;28;20065;-67
2022/05/13 06:57:38;;;;;;;7.32;4.35;;;;;;;;;;5012335;28;20053;-68
2022/05/13 07:00:07;;;;;;;7.00;4.65;;;;;;;;;;5012874;28;20501;-68
2022/05/13 07:02:34;;;;;;;7.07;4.85;;;;;;;;;;5012346;28;20064;-68
2022/05/13 07:05:01;;;;;;;7.13;4.65;;;;;;;;;;4993446;28;20398;-68
2022/05/13 07:07:28;;;;;;;9.20;4.60;;;;;;;;;;4993609;28;20054;-69
2022/05/13 07:09:55;;;;;;;7.18;4.53;;;;;;;;;;4994998;28;20051;-68
2022/05/13 07:12:21;;;;;;;7.00;4.90;;;;;;;;;;4994659;28;20100;-69
2022/05/13 07:14:49;;;;;;;9.40;4.55;;;;;;;;;;5011301;28;20484;-68
2022/05/13 07:17:16;;;;;;;7.47;3.95;;;;;;;;;;5014571;28;20096;-68
2022/05/13 07:19:42;;;;;;;6.35;4.28;;;;;;;;;;5014493;28;20116;-68
2022/05/13 07:22:09;;;;;;;6.03;4.68;;;;;;;;;;5014253;28;20050;-68
2022/05/13 07:24:35;;;;;;;9.98;4.05;;;;;;;;;;4998727;28;20113;-68
2022/05/13 07:27:03;;;;;;;7.95;3.80;;;;;;;;;;4994457;28;20075;-67
2022/05/13 07:29:30;;;;;;;6.80;3.58;;;;;;;;;;4992482;28;20046;-69
2022/05/13 07:31:57;;;;;;;7.53;3.95;;;;;;;;;;4994465;28;20062;-68
2022/05/13 07:34:26;;;;;;;8.68;4.00;;;;;;;;;;4994359;28;20061;-68
2022/05/13 07:36:53;;;;;;;6.45;4.05;;;;;;;;;;4994533;28;20055;-68
2022/05/13 07:42:08;;;;;;;9.27;3.83;;;;;;;;;;4993894;28;20058;-68
2022/05/13 07:44:35;;;;;;;5.95;3.78;;;;;;;;;;5008356;28;20050;-65
2022/05/13 07:47:03;;;;;;;7.22;3.13;;;;;;;;;;5013731;28;20501;-65
2022/05/13 07:49:31;;;;;;;5.80;3.15;;;;;;;;;;4987375;28;20050;-69
2022/05/13 07:52:01;;;;;;;8.18;3.60;;;;;;;;;;4992718;28;20049;-70
2022/05/13 07:54:27;;;;;;;7.22;3.53;;;;;;;;;;4985609;28;20054;-67
2022/05/13 07:56:54;;;;;;;9.82;3.55;;;;;;;;;;4982984;28;20050;-68
2022/05/13 07:59:21;;;;;;;3.45;2.42;;;;;;;;;;4978733;28;20050;-70
2022/05/13 08:01:47;;;;;;;6.20;2.75;;;;;;;;;;4982824;28;20133;-72
2022/05/13 08:04:14;;;;;;;7.80;3.22;;;;;;;;;;4985333;28;20434;-70
2022/05/13 08:06:42;;;;;;;7.45;2.63;;;;;;;;;;4977831;28;20054;-77
2022/05/13 08:09:08;;;;;;;5.75;2.70;;;;;;;;;;4993347;28;20050;-76
2022/05/13 08:11:35;;;;;;;7.57;2.60;;;;;;;;;;5008687;28;20479;-75
2022/05/13 08:14:06;;;;;;;7.75;2.97;;;;;;;;;;5017687;28;20137;-75
2022/05/13 08:16:34;;;;;;;6.25;2.80;;;;;;;;;;5013139;28;20437;-75
2022/05/13 08:19:02;;;;;;;5.60;2.47;;;;;;;;;;5027941;28;20045;-74
2022/05/13 08:21:29;;;;;;;9.48;3.45;;;;;;;;;;5011595;28;20060;-74
2022/05/13 08:23:57;;;;;;;5.97;2.47;;;;;;;;;;5020532;28;20050;-74
2022/05/13 08:26:23;;;;;;;8.10;2.58;;;;;;;;;;5008123;28;20057;-67
2022/05/13 08:28:50;;;;;;;8.02;2.72;;;;;;;;;;4992983;28;20454;-66
2022/05/13 08:31:17;;;;;;;8.02;2.55;;;;;;;;;;4993307;28;20457;-66
2022/05/13 08:33:43;;;;;;;5.57;2.20;;;;;;;;;;4997505;28;20061;-66
2022/05/13 08:36:14;;;;;;;6.60;2.53;;;;;;;;;;4994987;28;20057;-66
2022/05/13 08:38:43;;;;;;;6.55;2.30;;;;;;;;;;4990013;28;20576;-65
2022/05/13 08:41:10;;;;;;;7.57;2.78;;;;;;;;;;4991987;28;20086;-66
2022/05/13 08:43:43;;;;;;;7.38;2.25;;;;;;;;;;4992339;28;20050;-65
2022/05/13 08:46:16;;;;;;;8.77;2.45;;;;;;;;;;5007782;28;20506;-66
2022/05/13 08:49:01;;;;;;;;;;;;;;;;;;4993752;28;20108;-65
2022/05/13 08:51:37;;;;;;;8.25;2.55;;;;;;;;;;4992861;28;19929;-65
2022/05/13 08:54:15;;;;;;;6.68;2.10;;;;;;;;;;5007975;28;20471;-65
2022/05/13 08:56:48;;;;;;;9.95;2.40;;;;;;;;;;4992905;28;20066;-66
2022/05/13 08:59:31;;;;;;;4.18;2.33;;;;;;;;;;4992963;28;20556;-66
2022/05/13 09:02:01;;;;;;;;;;;;;;;;;;5006748;28;20378;-65
2022/05/13 09:04:38;;;;;;;4.63;1.50;;;;;;;;;;4991506;28;20431;-67
2022/05/13 09:07:17;;;;;;;4.32;1.73;;;;;;;;;;5007261;28;20050;-66
2022/05/13 09:09:45;;;;;;;8.00;2.38;;;;;;;;;;4991775;28;20050;-65
2022/05/13 09:12:24;;;;;;;7.45;2.00;;;;;;;;;;4991217;28;20061;-67
2022/05/13 09:14:58;;;;;;;9.02;2.47;;;;;;;;;;4992678;28;20109;-67
2022/05/13 09:17:35;;;;;;;11.32;2.70;;;;;;;;;;5007013;28;20497;-66
2022/05/13 09:20:13;;;;;;;5.97;2.60;;;;;;;;;;4992663;28;20053;-66
2022/05/13 09:22:50;;;;;;;4.82;2.28;;;;;;;;;;4992421;28;20094;-67
2022/05/13 09:25:29;;;;;;;5.78;2.40;;;;;;;;;;4992624;28;20058;-66
2022/05/13 09:27:59;;;;;;;5.25;2.20;;;;;;;;;;5006165;28;20058;-66
2022/05/13 09:30:46;;;;;;;4.70;2.35;;;;;;;;;;4993290;28;20054;-65
2022/05/13 09:33:33;;;;;;;7.53;2.20;;;;;;;;;;4991205;28;20050;-67
2022/05/13 09:36:02;;;;;;;7.47;2.28;;;;;;;;;;4992547;28;20050;-66
2022/05/13 09:38:45;;;;;;;7.68;2.50;;;;;;;;;;4992299;28;20141;-66
2022/05/13 09:41:13;;;;;;;6.10;1.98;;;;;;;;;;4992724;28;20046;-66
2022/05/13 09:43:43;;;;;;;5.63;1.67;;;;;;;;;;4992308;28;20057;-66
2022/05/13 09:46:12;;;;;;;7.80;2.13;;;;;;;;;;5031959;23;20041;-69
2022/05/13 09:48:40;;;;;;;5.88;1.75;;;;;;;;;;5012060;28;20076;-69
2022/05/13 09:51:20;;;;;;;8.77;2.10;;;;;;;;;;5010688;28;20049;-69
2022/05/13 09:54:01;;;;;;;8.80;2.10;;;;;;;;;;5012270;28;20450;-69
2022/05/13 09:56:46;;;;;;;5.15;2.33;;;;;;;;;;4992603;28;20050;-69
2022/05/13 09:59:25;;;;;;;7.38;1.88;;;;;;;;;;4992386;28;20047;-69
2022/05/13 10:01:52;;;;;;;6.22;1.92;;;;;;;;;;4992304;28;20073;-69
2022/05/13 10:04:26;;;;;;;7.80;1.88;;;;;;;;;;4992176;28;20531;-69
2022/05/13 10:07:10;;;;;;;5.43;1.73;;;;;;;;;;4992382;28;20046;-69
2022/05/13 10:15:25;;;;;;;4.85;1.38;;;;;;;;;;4991523;28;20133;-68
2022/05/13 10:18:12;;;;;;;3.67;1.70;;;;;;;;;;4991297;28;20054;-68
2022/05/13 10:20:40;;;;;;;6.32;1.90;;;;;;;;;;4991237;28;20057;-69
2022/05/13 10:23:12;;;;;;;5.43;2.20;;;;;;;;;;4992275;28;20481;-69
2022/05/13 10:26:01;;;;;;;5.00;2.40;;;;;;;;;;4994597;28;20062;-69
2022/05/13 10:28:50;;;;;;;5.22;2.22;;;;;;;;;;4995875;28;20050;-69
2022/05/13 10:31:27;;;;;;;11.02;3.47;;;;;;;;;;4994608;28;20046;-69
2022/05/13 10:33:59;;;;;;;4.75;2.00;;;;;;;;;;4994617;28;20050;-69
2022/05/13 10:36:50;;;;;;;6.72;2.50;;;;;;;;;;4994633;28;20054;-68
2022/05/13 10:39:22;;;;;;;5.30;2.28;;;;;;;;;;4994729;28;20042;-69
2022/05/13 10:41:52;;;;;;;9.50;2.50;;;;;;;;;;4995672;28;20051;-69
2022/05/13 10:44:23;;;;;;;7.40;2.55;;;;;;;;;;4994078;28;20069;-68
2022/05/13 10:46:58;;;;;;;9.55;2.45;;;;;;;;;;4995567;28;20054;-69
2022/05/13 10:49:38;;;;;;;8.00;2.72;;;;;;;;;;4994696;28;20046;-69
2022/05/13 10:52:13;;;;;;;6.10;2.13;;;;;;;;;;4994359;28;20101;-69
2022/05/13 10:54:49;;;;;;;19.30;8.95;;;;;;;;;;4994085;28;20097;-71
2022/05/13 10:57:18;;;;;;;16.38;8.05;;;;;;;;;;4994636;28;20054;-69
2022/05/13 10:59:54;;;;;;;4.50;2.42;;;;;;;;;;4995493;28;20053;-69
2022/05/13 11:02:27;;;;;;;5.40;2.25;;;;;;;;;;4994124;28;20091;-69
2022/05/13 11:05:14;;;;;;;4.10;2.17;;;;;;;;;;4995458;28;20109;-69
2022/05/13 11:08:12;;;;;;;5.78;2.35;;;;;;;;;;4995034;28;20116;-69
2022/05/13 11:11:24;;;;;;;5.53;2.30;;;;;;;;;;4993671;28;20421;-69
2022/05/13 11:14:22;;;;;;;4.30;2.30;;;;;;;;;;4953992;29;20058;-69
2022/05/13 11:17:15;;;;;;;4.95;2.17;;;;;;;;;;4997167;28;20050;-69
2022/05/13 11:20:03;;;;;;;7.32;2.17;;;;;;;;;;4996006;28;20405;-69
2022/05/13 11:22:39;;;;;;;4.43;2.10;;;;;;;;;;4994817;28;20054;-69
2022/05/13 11:28:22;;;;;;;5.00;2.25;;;;;;;;;;4993774;28;20528;-69
2022/05/13 11:31:20;;;;;;;5.28;2.28;;;;;;;;;;4994237;28;20047;-69
2022/05/13 11:34:15;;;;;;;6.70;2.03;;;;;;;;;;4993319;28;20057;-69
2022/05/13 11:37:02;;;;;;;4.70;2.65;;;;;;;;;;4993100;28;20563;-69
2022/05/13 11:40:07;;;;;;;4.50;2.28;;;;;;;;;;4979032;28;20054;-69
2022/05/13 11:43:20;;;;;;;3.83;2.58;;;;;;;;;;4994308;28;20160;-69
2022/05/13 11:45:59;;;;;;;5.45;2.35;;;;;;;;;;4993137;28;20054;-69
2022/05/13 11:48:32;;;;;;;6.65;2.00;;;;;;;;;;4994257;28;20101;-69
2022/05/13 11:51:21;;;;;;;3.88;2.20;;;;;;;;;;4992904;28;20097;-69
2022/05/13 11:54:01;;;;;;;8.98;2.13;;;;;;;;;;4992828;28;20559;-69
2022/05/13 11:56:30;;;;;;;4.88;2.35;;;;;;;;;;4994327;28;20120;-69
2022/05/13 11:59:11;;;;;;;6.18;2.45;;;;;;;;;;4994060;28;20050;-69
2022/05/13 12:01:43;;;;;;;4.82;2.40;;;;;;;;;;4994023;28;20046;-69
2022/05/13 12:04:16;;;;;;;;;;;;;;;;;;4994274;28;20541;-69
2022/05/13 12:06:51;;;;;;;5.43;2.33;;;;;;;;;;4994150;28;20398;-69
2022/05/13 12:09:23;;;;;;;8.07;2.92;;;;;;;;;;4993783;28;20097;-69
2022/05/13 12:12:08;;;;;;;7.68;2.28;;;;;;;;;;4992606;28;20108;-69
2022/05/13 12:14:41;;;;;;;4.35;2.08;;;;;;;;;;4993633;28;20449;-69
2022/05/13 12:17:37;;;;;;;;;;;;;;;;;;4994337;28;20050;-69
2022/05/13 12:20:18;;;;;;;6.50;2.40;;;;;;;;;;4957609;28;19933;-69
2022/05/13 12:22:56;;;;;;;9.02;2.05;;;;;;;;;;4993443;28;20097;-69
2022/05/13 12:25:26;;;;;;;7.18;2.10;;;;;;;;;;4992920;28;20532;-69
2022/05/13 12:28:10;;;;;;;4.03;2.22;;;;;;;;;;4993740;28;20497;-69
2022/05/13 12:30:45;;;;;;;5.10;2.35;;;;;;;;;;4993346;28;20046;-70
2022/05/13 12:33:23;;;;;;;3.58;1.75;;;;;;;;;;5008715;28;20057;-69
2022/05/13 12:39:53;;;;;;;8.85;3.20;;;;;;;;;;4981257;28;20058;-69
2022/05/13 12:42:50;;;;;;;4.03;1.75;;;;;;;;;;4952049;29;20055;-69
2022/05/13 12:45:58;;;;;;;8.48;1.80;;;;;;;;;;4982932;28;20085;-69
2022/05/13 12:48:25;;;;;;;3.08;1.70;;;;;;;;;;4979831;28;20129;-69
2022/05/13 12:51:11;;;;;;;5.90;2.65;;;;;;;;;;4992978;28;20050;-69
2022/05/13 12:53:56;;;;;;;4.47;1.88;;;;;;;;;;4993203;28;20050;-69
2022/05/13 12:56:46;;;;;;;7.78;2.72;;;;;;;;;;4991759;28;20132;-70
2022/05/13 12:59:15;;;;;;;4.72;1.83;;;;;;;;;;5008141;28;20058;-69
2022/05/13 13:01:44;;;;;;;4.75;1.85;;;;;;;;;;4992808;28;20050;-69
2022/05/13 13:04:12;;;;;;;3.88;1.95;;;;;;;;;;4991633;28;20073;-70
2022/05/13 13:06:42;;;;;;;3.53;1.63;;;;;;;;;;5007698;28;20046;-70
2022/05/13 13:09:20;;;;;;;4.05;1.67;;;;;;;;;;4993050;28;20054;-70
2022/05/13 13:12:06;;;;;;;3.40;1.50;;;;;;;;;;4992794;28;20054;-69
2022/05/13 13:15:04;;;;;;;3.28;1.48;;;;;;;;;;4992914;28;20112;-69
2022/05/13 13:17:35;;;;;;;4.82;1.42;;;;;;;;;;4993053;28;20112;-70
2022/05/13 13:20:05;;;;;;;2.83;1.40;;;;;;;;;;4991431;28;20496;-70
2022/05/13 13:22:36;;;;;;;4.32;1.83;;;;;;;;;;4992384;28;20571;-70
2022/05/13 13:25:08;;;;;;;3.55;1.52;;;;;;;;;;4991536;28;20054;-70
2022/05/13 13:27:35;;;;;;;4.18;1.60;;;;;;;;;;4991347;28;20501;-70
2022/05/13 13:30:02;;;;;;;4.30;1.77;;;;;;;;;;4991244;28;20485;-70
2022/05/13 13:32:29;;;;;;;4.13;1.45;;;;;;;;;;4991231;28;20081;-69
2022/05/13 13:34:58;;;;;;;3.55;1.45;;;;;;;;;;4991375;28;20050;-70
2022/05/13 13:37:30;;;;;;;3.30;1.33;;;;;;;;;;4992924;28;20054;-70
2022/05/13 13:40:11;;;;;;;2.78;1.23;;;;;;;;;;4991313;28;20050;-70
2022/05/13 13:42:38;;;;;;;3.08;1.73;;;;;;;;;;4991463;28;20046;-69
2022/05/13 13:45:16;;;;;;;2.72;1.20;;;;;;;;;;4992834;28;20157;-70
2022/05/13 13:47:48;;;;;;;5.30;1.40;;;;;;;;;;4992741;28;20058;-70
2022/05/13 13:50:30;;;;;;;2.88;1.20;;;;;;;;;;4991544;28;20412;-70
2022/05/13 13:52:57;;;;;;;3.83;1.60;;;;;;;;;;4991044;28;20413;-70
2022/05/13 13:55:29;;;;;;;3.47;1.27;;;;;;;;;;4992531;28;20054;-70
2022/05/13 13:58:37;;;;;;;2.58;1.80;;;;;;;;;;4992800;28;20112;-70
2022/05/13 14:01:17;;;;;;;4.43;1.50;;;;;;;;;;4982434;28;20050;-69
2022/05/13 14:03:45;;;;;;;3.95;1.50;;;;;;;;;;4995280;28;20105;-70
2022/05/13 14:06:14;;;;;;;5.10;1.75;;;;;;;;;;4996225;28;20050;-70
2022/05/13 14:08:41;;;;;;;2.25;1.35;;;;;;;;;;4995272;28;20087;-70
2022/05/13 14:11:12;;;;;;;4.55;1.40;;;;;;;;;;4994671;28;20054;-70
2022/05/13 14:14:02;;;;;;;5.82;1.88;;;;;;;;;;4996226;28;20082;-70
2022/05/13 14:16:33;;;;;;;5.93;1.85;;;;;;;;;;4995580;28;20054;-69
2022/05/13 14:19:09;;;;;;;5.30;1.63;;;;;;;;;;4995054;28;20100;-70
2022/05/13 14:21:55;;;;;;;4.43;1.40;;;;;;;;;;4994734;28;20526;-69
2022/05/13 14:24:42;;;;;;;4.32;1.13;;;;;;;;;;4995982;28;20054;-70
2022/05/13 14:27:20;;;;;;;3.15;1.30;;;;;;;;;;4996273;28;20390;-69
2022/05/13 14:29:47;;;;;;;4.72;1.48;;;;;;;;;;5010753;28;20054;-69
2022/05/13 14:32:19;;;;;;;3.42;1.30;;;;;;;;;;4995281;28;20057;-69
2022/05/13 14:35:13;;;;;;;3.67;1.30;;;;;;;;;;4995107;28;20101;-70
2022/05/13 14:38:01;;;;;;;2.92;1.30;;;;;;;;;;4994384;28;20125;-69
2022/05/13 14:40:32;;;;;;;4.05;1.50;;;;;;;;;;5010514;28;20394;-69
2022/05/13 14:43:05;;;;;;;2.70;1.05;;;;;;;;;;4994163;28;20101;-69
2022/05/13 14:45:35;;;;;;;4.10;1.30;;;;;;;;;;4995448;28;20077;-70
2022/05/13 14:48:20;;;;;;;6.30;1.10;;;;;;;;;;4995494;28;20054;-69
2022/05/13 14:51:07;;;;;;;2.88;1.17;;;;;;;;;;4995082;28;20046;-69
2022/05/13 14:53:58;;;;;;;3.75;1.23;;;;;;;;;;4993974;28;20069;-69
2022/05/13 14:56:27;;;;;;;2.38;0.98;;;;;;;;;;4994320;28;20064;-69
2022/05/13 14:58:56;;;;;;;1.80;1.10;;;;;;;;;;5010163;28;20054;-69
2022/05/13 15:01:29;;;;;;;6.28;1.55;;;;;;;;;;5009950;28;20178;-69
2022/05/13 15:04:00;;;;;;;;;;;;;;;;;;4995717;28;20476;-69
2022/05/13 15:06:33;;;;;;;2.45;1.40;;;;;;;;;;4995252;28;19976;-69
2022/05/13 15:09:00;;;;;;;;;;;;;;;;;;4994989;28;20250;-69
2022/05/13 15:11:26;;;;;;;2.00;1.20;;;;;;;;;;4994870;28;19929;-69
2022/05/13 15:13:53;;;;;;;2.85;1.10;;;;;;;;;;4994820;28;20050;-70
2022/05/13 15:16:26;;;;;;;4.13;1.35;;;;;;;;;;4994901;28;20057;-69
2022/05/13 15:18:53;;;;;;;1.98;0.95;;;;;;;;;;4993909;28;20078;-69
2022/05/13 15:21:20;;;;;;;2.22;1.30;;;;;;;;;;4994781;28;20218;-69
2022/05/13 15:23:47;;;;;;;3.58;1.30;;;;;;;;;;4994782;28;20050;-69
2022/05/13 15:26:15;;;;;;;4.78;1.30;;;;;;;;;;4994616;28;20061;-69
2022/05/13 15:28:43;;;;;;;4.82;1.20;;;;;;;;;;4993513;28;20054;-69
2022/05/13 15:31:10;;;;;;;5.13;1.08;;;;;;;;;;4993411;28;20053;-69
2022/05/13 15:33:37;;;;;;;3.15;1.10;;;;;;;;;;4994757;28;20402;-69
2022/05/13 15:36:04;;;;;;;5.85;1.20;;;;;;;;;;4994459;28;20046;-69
2022/05/13 15:38:30;;;;;;;4.30;1.23;;;;;;;;;;4994563;28;20121;-69
2022/05/13 15:40:57;;;;;;;1.95;1.05;;;;;;;;;;4994197;28;20097;-69
2022/05/13 15:43:27;;;;;;;3.67;1.23;;;;;;;;;;4994302;28;20469;-69
2022/05/13 15:45:54;;;;;;;6.88;1.48;;;;;;;;;;4994664;28;20062;-69